Time;durP1;ratioP1;P1;durP2;ratioP2;P2;SDS_P1;SDS_P2;PMS_P1;PMS_P2;Temp;Humidity;BMP_temperature;BMP_pressure;BME280_temperature;BME280_humidity;BME280_pressure;Samples;Min_cycle;Max_cycle;Signal;HPM_P1;HPM_P2
2023/06/17 00:00:52;;;;;;;;;18.75;18.75;;;;;28.11;28.30;100778.00;4975475;28;45450;-80
2023/06/17 00:03:18;;;;;;;;;16.75;16.75;;;;;28.12;27.58;100785.09;4975713;28;45672;-80
2023/06/17 00:05:43;;;;;;;;;15.25;15.00;;;;;27.98;27.92;100767.31;4975354;28;45561;-79
2023/06/17 00:08:08;;;;;;;;;16.75;15.50;;;;;28.07;28.03;100779.47;4975375;28;45645;-81
2023/06/17 00:10:34;;;;;;;;;17.00;17.00;;;;;28.06;28.23;100783.25;4975210;28;45562;-79
2023/06/17 00:13:00;;;;;;;;;15.50;15.50;;;;;28.03;27.78;100778.28;4975315;28;47013;-80
2023/06/17 00:15:28;;;;;;;;;16.00;15.50;;;;;27.99;28.79;100774.38;4975571;28;45939;-80
2023/06/17 00:17:55;;;;;;;;;15.00;14.50;;;;;27.94;28.36;100771.50;4975297;28;45549;-80
2023/06/17 00:23:43;;;;;;;;;18.00;17.00;;;;;27.81;28.30;100742.78;4975271;28;46022;-77
2023/06/17 00:26:08;;;;;;;;;17.75;16.00;;;;;27.88;28.63;100759.75;4975559;28;45766;-76
2023/06/17 00:28:33;;;;;;;;;15.75;14.75;;;;;27.80;28.21;100753.81;4975410;28;45672;-77
2023/06/17 00:30:59;;;;;;;;;16.75;15.00;;;;;27.90;28.47;100764.91;4975146;28;46288;-76
2023/06/17 00:33:24;;;;;;;;;20.75;17.75;;;;;27.90;28.26;100759.53;4975528;28;45627;-77
2023/06/17 00:39:13;;;;;;;;;16.25;16.25;;;;;27.84;28.85;100752.31;4974990;28;45557;-77
2023/06/17 00:41:38;;;;;;;;;17.25;17.00;;;;;27.86;29.00;100758.28;4975293;28;46369;-77
2023/06/17 00:44:04;;;;;;;;;16.50;16.25;;;;;27.85;28.73;100748.59;4975695;28;45762;-78
2023/06/17 00:46:35;;;;;;;;;15.50;15.00;;;;;27.82;28.92;100741.75;4976707;28;45710;-76
2023/06/17 00:49:02;;;;;;;;;20.25;15.50;;;;;27.82;28.74;100741.75;4974879;28;45905;-77
2023/06/17 00:51:28;;;;;;;;;16.00;16.00;;;;;27.83;29.22;100742.59;4974310;28;46635;-76
2023/06/17 00:53:54;;;;;;;;;19.00;17.25;;;;;27.82;28.69;100739.06;4974683;28;45690;-77
2023/06/17 00:56:20;;;;;;;;;17.00;15.00;;;;;27.79;29.10;100733.28;4974823;28;45583;-79
2023/06/17 00:58:46;;;;;;;;;18.00;17.00;;;;;27.80;29.12;100724.19;4974575;28;45586;-76
2023/06/17 01:01:11;;;;;;;;;15.50;14.75;;;;;27.80;29.22;100724.19;4974451;28;46565;-78
2023/06/17 01:03:36;;;;;;;;;15.50;14.00;;;;;27.76;29.00;100715.69;4974154;28;47001;-75
2023/06/17 01:09:29;;;;;;;;;17.25;16.75;;;;;27.70;28.91;100713.03;4962565;28;45949;-78
2023/06/17 01:11:57;;;;;;;;;14.50;14.25;;;;;27.67;29.33;100710.81;4974393;28;46598;-77
2023/06/17 01:14:24;;;;;;;;;15.50;15.25;;;;;27.69;29.32;100714.09;4974234;28;46350;-79
2023/06/17 01:16:53;;;;;;;;;16.25;15.00;;;;;27.65;29.33;100707.50;4974246;28;45680;-78
2023/06/17 01:19:23;;;;;;;;;16.25;16.25;;;;;27.66;29.40;100711.84;4974339;28;45762;-76
2023/06/17 01:21:51;;;;;;;;;16.25;15.50;;;;;27.52;29.18;100693.09;4974391;28;46443;-76
2023/06/17 01:24:25;;;;;;;;;16.25;16.25;;;;;27.64;29.53;100716.63;4974262;28;46106;-76
2023/06/17 01:26:55;;;;;;;;;15.50;15.50;;;;;27.61;29.14;100712.50;4974296;28;45636;-77
2023/06/17 01:29:22;;;;;;;;;15.00;15.00;;;;;27.58;29.56;100709.41;4974382;28;45627;-78
2023/06/17 01:31:49;;;;;;;;;15.00;14.25;;;;;27.59;29.14;100713.75;4974233;28;45519;-78
2023/06/17 01:34:19;;;;;;;;;15.50;14.50;;;;;27.59;29.56;100716.44;4974118;28;46056;-78
2023/06/17 01:40:12;;;;;;;;;14.50;13.50;;;;;27.49;29.59;100701.56;4974888;28;45545;-76
2023/06/17 01:42:45;;;;;;;;;15.00;15.00;;;;;27.43;29.86;100691.66;4975244;28;45764;-78
2023/06/17 01:45:12;;;;;;;;;13.00;13.00;;;;;27.46;29.37;100701.19;4974964;28;46308;-77
2023/06/17 01:47:37;;;;;;;;;11.00;11.00;;;;;27.42;29.96;100708.03;4975699;28;45670;-77
2023/06/17 01:50:05;;;;;;;;;15.00;14.75;;;;;27.40;29.93;100705.56;4979458;28;45600;-77
2023/06/17 01:52:30;;;;;;;;;16.00;15.00;;;;;27.26;29.65;100678.97;4983241;28;46793;-77
2023/06/17 01:54:57;;;;;;;;;15.75;15.75;;;;;27.37;29.85;100691.72;4984299;28;45705;-78
2023/06/17 01:57:22;;;;;;;;;15.50;15.25;;;;;27.31;30.06;100687.19;4983717;28;45604;-76
2023/06/17 01:59:48;;;;;;;;;20.00;17.50;;;;;27.14;29.71;100668.88;4974068;28;45915;-78
2023/06/17 02:02:14;;;;;;;;;11.25;10.75;;;;;27.31;30.13;100695.28;4973895;28;45555;-80
2023/06/17 02:04:39;;;;;;;;;15.75;15.00;;;;;27.30;30.26;100696.31;4973747;28;45556;-76
2023/06/17 02:10:26;;;;;;;;;16.25;14.50;;;;;27.24;30.26;100692.63;4963801;28;45744;-77
2023/06/17 02:12:51;;;;;;;;;16.25;14.75;;;;;27.23;30.26;100695.50;4973781;28;45985;-77
2023/06/17 02:15:17;;;;;;;;;15.25;15.00;;;;;27.08;30.22;100679.66;4973787;28;45668;-78
2023/06/17 02:17:43;;;;;;;;;16.25;15.00;;;;;27.10;30.07;100685.63;4973611;28;45601;-77
2023/06/17 02:20:09;;;;;;;;;15.00;14.75;;;;;27.11;30.49;100680.06;4972639;28;45474;-77
2023/06/17 02:22:35;;;;;;;;;19.50;18.75;;;;;27.18;30.68;100701.53;4973217;28;46577;-78
2023/06/17 02:25:02;;;;;;;;;18.00;17.00;;;;;27.18;30.79;100700.72;4973015;28;47195;-79
2023/06/17 02:27:28;;;;;;;;;17.75;17.00;;;;;26.99;31.02;100665.63;4973365;28;45724;-79
2023/06/17 02:29:54;;;;;;;;;14.25;14.25;;;;;27.12;30.83;100687.09;4973523;28;45650;-75
2023/06/17 02:32:19;;;;;;;;;16.00;14.75;;;;;27.11;31.03;100689.97;4973304;28;45599;-78
2023/06/17 02:34:48;;;;;;;;;18.25;17.50;;;;;27.10;30.77;100677.56;4955204;28;46276;-78
2023/06/17 02:40:35;;;;;;;;;14.75;14.75;;;;;26.99;31.31;100667.50;4973018;28;45564;-75
2023/06/17 02:43:00;;;;;;;;;12.75;12.25;;;;;26.95;30.83;100672.47;4973068;28;46372;-76
2023/06/17 02:45:26;;;;;;;;;15.00;15.00;;;;;26.93;31.65;100671.06;4972963;28;46817;-76
2023/06/17 02:47:51;;;;;;;;;14.00;13.50;;;;;26.88;31.20;100666.31;4973183;28;45703;-76
2023/06/17 02:50:20;;;;;;;;;15.75;14.75;;;;;26.86;31.55;100657.59;4973130;28;45664;-76
2023/06/17 02:56:07;;;;;;;;;15.75;15.00;;;;;26.64;31.49;100632.88;4972758;28;46085;-76
2023/06/17 02:58:32;;;;;;;;;15.75;15.00;;;;;26.74;31.46;100651.25;4972906;28;45662;-77
2023/06/17 03:00:58;;;;;;;;;15.75;14.50;;;;;26.73;31.57;100653.09;4973128;28;45645;-79
2023/06/17 03:03:33;;;;;;;;;13.25;13.00;;;;;26.71;31.60;100649.00;4972940;28;45831;-77
2023/06/17 03:06:01;;;;;;;;;13.50;13.50;;;;;26.71;31.78;100649.81;4972435;28;46940;-77
2023/06/17 03:08:32;;;;;;;;;14.25;14.25;;;;;26.69;32.07;100643.00;4973464;28;45866;-78
2023/06/17 03:10:58;;;;;;;;;13.75;13.75;;;;;26.67;31.92;100645.06;4973788;28;45652;-79
2023/06/17 03:13:23;;;;;;;;;20.25;18.75;;;;;26.58;31.64;100632.91;4973534;28;45495;-78
2023/06/17 03:15:50;;;;;;;;;16.25;14.50;;;;;26.64;31.81;100649.00;4973391;28;45632;-78
2023/06/17 03:18:16;;;;;;;;;15.25;15.25;;;;;26.64;31.75;100645.50;4973161;28;45571;-78
2023/06/17 03:20:42;;;;;;;;;13.50;13.50;;;;;26.64;31.91;100648.19;4972818;28;45499;-77
2023/06/17 03:26:29;;;;;;;;;16.00;15.75;;;;;26.63;32.37;100659.97;4972720;28;45874;-79
2023/06/17 03:28:55;;;;;;;;;15.75;15.25;;;;;26.63;31.87;100649.22;4972576;28;45627;-79
2023/06/17 03:31:21;;;;;;;;;18.25;17.00;;;;;26.61;32.11;100649.41;4973361;28;45541;-75
2023/06/17 03:33:50;;;;;;;;;19.00;17.25;;;;;26.61;32.25;100645.94;4975890;28;45734;-76
2023/06/17 03:36:17;;;;;;;;;16.50;15.50;;;;;26.63;32.32;100644.66;4975873;28;46059;-76
2023/06/17 03:38:43;;;;;;;;;14.25;14.25;;;;;26.56;32.10;100633.09;4975571;28;45635;-78
2023/06/17 03:41:09;;;;;;;;;14.25;13.50;;;;;26.49;31.96;100637.69;4976154;28;45482;-75
2023/06/17 03:43:35;;;;;;;;;17.75;16.50;;;;;26.60;32.64;100660.41;4975347;28;46475;-77
2023/06/17 03:46:00;;;;;;;;;13.00;12.25;;;;;26.43;32.14;100618.91;4975703;28;45581;-77
2023/06/17 03:48:25;;;;;;;;;15.25;15.00;;;;;26.56;32.18;100643.84;4975650;28;45658;-76
2023/06/17 03:50:50;;;;;;;;;14.00;13.50;;;;;26.55;32.17;100649.47;4976113;28;45695;-78
2023/06/17 03:56:38;;;;;;;;;17.25;16.25;;;;;26.53;32.02;100641.59;4975829;28;46022;-77
2023/06/17 03:59:03;;;;;;;;;17.00;17.00;;;;;26.52;32.39;100639.13;4975587;28;45581;-76
2023/06/17 04:01:28;;;;;;;;;15.75;14.00;;;;;26.47;32.42;100639.75;4975621;28;45526;-76
2023/06/17 04:03:54;;;;;;;;;14.25;14.25;;;;;26.48;32.43;100638.72;4975427;28;46497;-78
2023/06/17 04:06:20;;;;;;;;;15.00;15.00;;;;;26.47;32.45;100641.63;4975304;28;46885;-76
2023/06/17 04:12:07;;;;;;;;;14.75;13.50;;;;;26.43;32.58;100649.28;4964211;28;46651;-77
2023/06/17 04:14:32;;;;;;;;;14.50;14.00;;;;;26.43;32.87;100653.84;4974898;28;47693;-77
2023/06/17 04:16:59;;;;;;;;;11.00;11.00;;;;;26.36;32.61;100640.41;4975337;28;46527;-77
2023/06/17 04:19:24;;;;;;;;;16.00;13.00;;;;;26.39;32.50;100645.38;4975004;28;45727;-78
2023/06/17 04:21:50;;;;;;;;;15.00;15.00;;;;;26.31;32.71;100640.22;4975355;28;45768;-76
2023/06/17 04:24:15;;;;;;;;;14.00;14.00;;;;;26.37;32.52;100641.25;4974848;28;46288;-78
2023/06/17 04:26:44;;;;;;;;;16.25;14.50;;;;;26.34;32.61;100641.69;4974904;28;46343;-77
2023/06/17 04:29:10;;;;;;;;;16.50;15.50;;;;;26.25;32.63;100635.69;4975167;28;45659;-79
2023/06/17 04:31:39;;;;;;;;;15.00;14.25;;;;;26.34;32.79;100653.25;4975270;28;45693;-80
2023/06/17 04:34:05;;;;;;;;;12.00;12.00;;;;;26.35;32.74;100654.06;4974847;28;46560;-79
2023/06/17 04:36:30;;;;;;;;;14.25;14.25;;;;;26.29;32.77;100647.66;4975068;28;46042;-78
2023/06/17 04:42:17;;;;;;;;;16.00;14.50;;;;;26.35;33.07;100646.81;4974619;28;45522;-77
2023/06/17 04:44:43;;;;;;;;;15.25;14.50;;;;;26.35;33.06;100644.13;4973896;28;46612;-77
2023/06/17 04:47:10;;;;;;;;;15.25;15.25;;;;;26.30;32.77;100642.09;4974749;28;45655;-78
2023/06/17 04:49:38;;;;;;;;;14.75;13.00;;;;;26.34;33.10;100644.38;4957074;28;45569;-77
2023/06/17 04:58:19;;;;;;;;;16.25;16.00;;;;;26.34;33.55;100642.50;4974222;28;45952;-76
2023/06/17 05:00:44;;;;;;;;;14.50;14.25;;;;;26.32;33.15;100633.81;4974256;28;45642;-76
2023/06/17 05:03:10;;;;;;;;;13.00;12.00;;;;;26.32;33.28;100628.44;4974602;28;45454;-80
2023/06/17 05:05:35;;;;;;;;;12.25;12.25;;;;;26.30;33.39;100625.97;4974133;28;47559;-77
2023/06/17 05:11:22;;;;;;;;;15.50;14.50;;;;;26.31;33.56;100627.63;4974080;28;45894;-76
2023/06/17 05:13:48;;;;;;;;;14.00;12.50;;;;;26.29;33.56;100626.16;4973270;28;45746;-77
2023/06/17 05:16:13;;;;;;;;;15.00;13.00;;;;;26.32;33.52;100623.06;4974123;28;47119;-78
2023/06/17 05:18:38;;;;;;;;;15.50;14.75;;;;;26.33;33.63;100623.91;4974183;28;46268;-76
2023/06/17 05:21:04;;;;;;;;;15.25;14.00;;;;;26.36;33.14;100629.66;4974170;28;45593;-79
2023/06/17 05:26:52;;;;;;;;;14.75;13.50;;;;;26.39;33.49;100634.63;4973930;28;45844;-78
2023/06/17 05:29:17;;;;;;;;;14.50;12.50;;;;;26.42;33.26;100638.75;4956281;28;46753;-78
2023/06/17 05:31:43;;;;;;;;;16.50;15.75;;;;;26.42;33.14;100639.56;4973696;28;45698;-78
2023/06/17 05:34:08;;;;;;;;;12.00;12.00;;;;;26.38;33.83;100626.78;4974246;28;45653;-75
2023/06/17 05:36:33;;;;;;;;;14.25;13.50;;;;;26.47;33.58;100634.38;4956053;28;46516;-78
2023/06/17 05:42:20;;;;;;;;;14.25;14.25;;;;;26.37;33.54;100612.50;4973889;28;45722;-78
2023/06/17 05:44:47;;;;;;;;;16.75;14.75;;;;;26.51;33.34;100632.09;4974092;28;45606;-79
2023/06/17 05:47:12;;;;;;;;;15.00;14.50;;;;;26.50;33.84;100631.28;4973852;28;45769;-78
2023/06/17 05:49:39;;;;;;;;;16.50;15.00;;;;;26.55;33.74;100630.66;4973460;28;46126;-78
2023/06/17 05:52:05;;;;;;;;;17.25;16.75;;;;;26.54;33.28;100619.06;4973693;28;45694;-78
2023/06/17 05:57:52;;;;;;;;;21.00;20.25;;;;;26.53;33.47;100622.78;4973355;28;45612;-77
2023/06/17 06:00:19;;;;;;;;;14.50;14.25;;;;;26.58;33.34;100632.91;4973441;28;46077;-78
2023/06/17 06:02:44;;;;;;;;;14.00;14.00;;;;;26.53;33.41;100622.78;4973300;28;45541;-76
2023/06/17 06:05:10;;;;;;;;;13.00;12.00;;;;;26.62;33.40;100631.44;4973541;28;45672;-78
2023/06/17 06:07:35;;;;;;;;;13.00;13.00;;;;;26.62;33.76;100634.94;4973572;28;46612;-79
2023/06/17 06:13:22;;;;;;;;;18.25;16.00;;;;;26.69;33.38;100640.31;4962498;28;45880;-78
2023/06/17 06:15:48;;;;;;;;;13.50;13.00;;;;;26.66;33.38;100644.25;4973671;28;45552;-79
2023/06/17 06:18:15;;;;;;;;;13.25;12.75;;;;;26.71;32.75;100641.75;4973058;28;47148;-80
2023/06/17 06:20:42;;;;;;;;;12.25;12.00;;;;;26.73;33.40;100647.72;4973467;28;46043;-81
2023/06/17 06:23:08;;;;;;;;;16.50;14.75;;;;;26.75;33.11;100652.91;4973265;28;45675;-80
2023/06/17 06:28:56;;;;;;;;;12.00;12.00;;;;;26.78;32.96;100657.84;4973015;28;45784;-79
2023/06/17 06:31:21;;;;;;;;;15.00;14.50;;;;;26.78;33.15;100648.94;4972907;28;47148;-77
2023/06/17 06:33:47;;;;;;;;;15.75;15.25;;;;;26.80;33.58;100654.94;4972773;28;45819;-78
2023/06/17 06:36:12;;;;;;;;;18.50;16.25;;;;;26.78;33.71;100643.56;4973157;28;45536;-76
2023/06/17 06:38:38;;;;;;;;;13.75;13.75;;;;;26.74;33.27;100635.94;4972988;28;45856;-78
2023/06/17 06:44:24;;;;;;;;;14.00;12.75;;;;;26.88;33.12;100660.13;4972605;28;45716;-79
2023/06/17 06:46:50;;;;;;;;;12.75;12.75;;;;;26.90;33.40;100663.41;4972978;28;45591;-79
2023/06/17 06:49:15;;;;;;;;;12.75;12.00;;;;;26.90;33.70;100663.41;4972760;28;45406;-79
2023/06/17 06:51:41;;;;;;;;;14.75;14.50;;;;;26.92;33.33;100664.03;4972890;28;46144;-79
2023/06/17 06:54:06;;;;;;;;;13.25;12.50;;;;;26.93;33.18;100668.38;4972553;28;45520;-80
2023/06/17 06:56:31;;;;;;;;;14.75;14.00;;;;;27.00;33.12;100669.97;4955326;28;45599;-79
2023/06/17 06:58:57;;;;;;;;;12.50;12.00;;;;;27.01;32.82;100662.72;4972506;28;47474;-78
2023/06/17 07:01:24;;;;;;;;;12.00;11.25;;;;;27.04;33.01;100662.31;4972647;28;46360;-78
2023/06/17 07:03:50;;;;;;;;;16.50;14.50;;;;;27.12;32.61;100670.13;4973078;28;45642;-80
2023/06/17 07:06:15;;;;;;;;;14.75;14.00;;;;;27.12;32.88;100662.88;4975513;28;45596;-77
2023/06/17 07:08:41;;;;;;;;;13.25;13.00;;;;;27.17;33.41;100672.97;4979206;28;45646;-77
2023/06/17 07:14:28;;;;;;;;;16.00;15.50;;;;;27.23;32.85;100677.50;4969163;28;45808;-77
2023/06/17 07:16:53;;;;;;;;;15.00;14.75;;;;;27.26;33.45;100665.50;4978984;28;45663;-77
2023/06/17 07:19:18;;;;;;;;;13.75;13.50;;;;;27.24;32.78;100664.88;4979300;28;46404;-78
2023/06/17 07:21:43;;;;;;;;;13.25;13.00;;;;;27.11;32.85;100634.31;4979672;28;45671;-75
2023/06/17 07:24:09;;;;;;;;;12.25;12.25;;;;;27.36;33.13;100666.69;4979196;28;45736;-74
2023/06/17 07:29:56;;;;;;;;;13.50;13.00;;;;;27.40;32.81;100672.44;4978669;28;45579;-76
2023/06/17 07:32:21;;;;;;;;;14.75;14.00;;;;;27.35;33.52;100659.63;4979052;28;46580;-76
2023/06/17 07:34:46;;;;;;;;;12.25;12.00;;;;;27.45;32.75;100678.81;4978631;28;45532;-76
2023/06/17 07:37:12;;;;;;;;;13.00;12.25;;;;;27.45;33.17;100669.91;4978867;28;46006;-75
2023/06/17 07:39:37;;;;;;;;;13.50;13.00;;;;;27.49;32.49;100671.13;4978864;28;46484;-78
2023/06/17 07:42:04;;;;;;;;;14.50;12.50;;;;;27.52;33.08;100678.81;4961261;28;48113;-76
2023/06/17 07:44:31;;;;;;;;;13.00;12.50;;;;;27.50;32.99;100670.13;4978768;28;45721;-74
2023/06/17 07:46:58;;;;;;;;;14.25;14.00;;;;;27.57;32.91;100684.38;4978893;28;45605;-76
2023/06/17 07:49:23;;;;;;;;;15.00;14.00;;;;;27.54;32.58;100674.84;4978752;28;45534;-76
2023/06/17 07:51:49;;;;;;;;;14.50;12.50;;;;;27.61;33.37;100679.34;4978706;28;45574;-76
2023/06/17 07:54:15;;;;;;;;;15.50;13.50;;;;;27.63;32.77;100680.81;4978592;28;45457;-75
2023/06/17 08:00:09;;;;;;;;;12.00;12.00;;;;;27.54;32.70;100660.56;4978009;28;45923;-77
2023/06/17 08:02:34;;;;;;;;;11.50;11.00;;;;;27.69;32.87;100681.78;4978283;28;45917;-77
2023/06/17 08:05:00;;;;;;;;;14.00;13.75;;;;;27.72;32.73;100684.03;4960746;28;46100;-74
2023/06/17 08:07:26;;;;;;;;;13.75;13.00;;;;;27.75;32.69;100680.91;4978639;28;45618;-75
2023/06/17 08:09:52;;;;;;;;;14.50;12.00;;;;;27.77;32.76;100685.03;4978479;28;46403;-76
2023/06/17 08:12:17;;;;;;;;;13.75;12.50;;;;;27.75;32.60;100662.88;4978746;28;46288;-80
2023/06/17 08:14:42;;;;;;;;;15.50;14.00;;;;;27.78;32.59;100661.63;4978440;28;45615;-77
2023/06/17 08:17:08;;;;;;;;;15.00;14.00;;;;;27.90;32.49;100676.84;4960812;28;45671;-76
2023/06/17 08:19:33;;;;;;;;;12.25;11.50;;;;;27.93;31.97;100670.19;4975309;28;45528;-76
2023/06/17 08:22:00;;;;;;;;;13.00;13.00;;;;;27.96;32.73;100667.06;4975269;28;47161;-75
2023/06/17 08:24:26;;;;;;;;;12.00;10.50;;;;;27.98;31.85;100667.66;4975337;28;45524;-77
2023/06/17 08:30:13;;;;;;;;;12.50;11.25;;;;;27.99;31.47;100658.53;4975136;28;45612;-77
2023/06/17 08:32:41;;;;;;;;;14.25;12.50;;;;;28.01;31.54;100652.94;4975032;28;47387;-75
2023/06/17 08:35:07;;;;;;;;;12.00;11.00;;;;;28.02;31.93;100651.88;4974726;28;45616;-76
2023/06/17 08:37:36;;;;;;;;;11.00;11.00;;;;;27.98;32.27;100640.72;4974706;28;45881;-77
2023/06/17 08:40:04;;;;;;;;;13.75;12.00;;;;;28.08;32.18;100642.88;4974902;28;46563;-76
2023/06/17 08:45:53;;;;;;;;;13.50;12.75;;;;;28.14;32.34;100650.13;4974718;28;46260;-77
2023/06/17 08:48:19;;;;;;;;;14.00;13.25;;;;;28.18;32.16;100640.56;4956994;28;45935;-75
2023/06/17 08:50:47;;;;;;;;;13.50;12.75;;;;;28.26;32.50;100649.16;4974296;28;46775;-77
2023/06/17 08:53:14;;;;;;;;;12.75;12.50;;;;;28.30;32.11;100634.19;4957691;28;45578;-75
2023/06/17 08:55:40;;;;;;;;;12.00;11.75;;;;;28.35;32.03;100641.59;4974921;28;45623;-75
2023/06/17 08:58:06;;;;;;;;;14.00;14.00;;;;;28.42;31.39;100636.97;4975677;28;45564;-74
2023/06/17 09:00:31;;;;;;;;;14.50;13.75;;;;;28.44;31.70;100629.47;4976505;28;47539;-76
2023/06/17 09:02:59;;;;;;;;;12.75;12.75;;;;;28.51;31.99;100641.00;4975614;28;47390;-77
2023/06/17 09:05:25;;;;;;;;;12.25;12.25;;;;;28.55;32.00;100642.22;4976363;28;45802;-75
2023/06/17 09:07:50;;;;;;;;;14.00;14.00;;;;;28.59;31.40;100631.78;4974854;28;45865;-75
2023/06/17 09:10:15;;;;;;;;;14.00;14.00;;;;;28.62;31.73;100640.25;4974814;28;46510;-76
2023/06/17 09:16:31;;;;;;;;;14.00;13.50;;;;;28.65;31.89;100642.50;4965360;28;45672;-75
2023/06/17 09:18:57;;;;;;;;;13.50;13.50;;;;;28.67;31.83;100635.00;4957068;28;45623;-75
2023/06/17 09:21:24;;;;;;;;;14.25;12.75;;;;;28.64;31.42;100630.06;4974214;28;46613;-74
2023/06/17 09:23:59;;;;;;;;;15.25;14.75;;;;;28.71;31.43;100635.38;4974172;28;46217;-76
2023/06/17 09:26:28;;;;;;;;;15.50;15.25;;;;;28.75;31.54;100633.91;4974118;28;45642;-77
2023/06/17 09:29:00;;;;;;;;;16.75;15.25;;;;;28.75;31.50;100639.28;4973672;28;45640;-75
2023/06/17 09:31:25;;;;;;;;;14.50;14.00;;;;;28.75;31.57;100636.59;4974237;28;46308;-77
2023/06/17 09:33:51;;;;;;;;;16.25;15.50;;;;;28.76;31.86;100632.84;4973870;28;46415;-76
2023/06/17 09:36:17;;;;;;;;;15.50;14.50;;;;;28.65;32.61;100617.41;4974421;28;45605;-75
2023/06/17 09:38:43;;;;;;;;;18.00;15.50;;;;;28.74;32.61;100624.97;4974475;28;45969;-75
2023/06/17 09:41:14;;;;;;;;;16.25;16.25;;;;;28.81;32.00;100634.88;4973997;28;45654;-75
2023/06/17 09:43:41;;;;;;;;;17.25;15.75;;;;;28.79;32.30;100627.00;4973820;28;45915;-74
2023/06/17 09:46:09;;;;;;;;;17.00;15.25;;;;;28.85;32.45;100633.34;4973904;28;45558;-75
2023/06/17 09:48:38;;;;;;;;;16.75;15.75;;;;;28.87;32.43;100632.09;4973728;28;45729;-75
2023/06/17 09:51:05;;;;;;;;;17.00;17.00;;;;;28.95;32.87;100631.75;4973931;28;46444;-75
2023/06/17 09:53:31;;;;;;;;;18.75;17.00;;;;;28.95;32.43;100625.53;4973572;28;46293;-73
2023/06/17 09:55:58;;;;;;;;;16.00;16.00;;;;;29.01;32.57;100622.75;4974152;28;45589;-79
2023/06/17 10:01:46;;;;;;;;;17.25;16.75;;;;;29.11;32.45;100619.47;4973445;28;45663;-78
2023/06/17 10:04:13;;;;;;;;;15.75;15.75;;;;;29.15;32.36;100618.78;4974353;28;45939;-80
2023/06/17 10:06:43;;;;;;;;;19.00;17.50;;;;;29.20;32.32;100618.91;4973566;28;45797;-78
2023/06/17 10:09:09;;;;;;;;;19.00;18.00;;;;;29.25;32.33;100618.25;4973647;28;45787;-77
2023/06/17 10:11:35;;;;;;;;;16.75;16.00;;;;;29.30;32.43;100615.69;4973828;28;46281;-79
2023/06/17 10:14:13;;;;;;;;;19.00;18.25;;;;;29.29;32.63;100602.41;4973366;28;45938;-79
2023/06/17 10:16:43;;;;;;;;;20.25;18.00;;;;;29.39;32.32;100605.38;4973219;28;45683;-78
2023/06/17 10:19:11;;;;;;;;;19.25;17.00;;;;;29.47;32.41;100613.16;4972971;28;45715;-80
2023/06/17 10:21:40;;;;;;;;;19.00;18.25;;;;;29.40;32.06;100590.84;4973831;28;46771;-80
2023/06/17 10:24:07;;;;;;;;;18.00;18.00;;;;;29.37;32.41;100580.47;4973504;28;45647;-78
2023/06/17 10:33:04;;;;;;;;;19.25;19.25;;;;;29.68;32.24;100599.09;4974860;28;45582;-76
2023/06/17 10:35:43;;;;;;;;;18.75;18.00;;;;;29.59;32.00;100582.38;4974462;28;46201;-79
2023/06/17 10:38:10;;;;;;;;;21.00;19.75;;;;;29.73;32.20;100593.81;4974090;28;45860;-78
2023/06/17 10:40:50;;;;;;;;;17.50;16.75;;;;;29.76;32.19;100597.91;4972824;28;45608;-78
2023/06/17 10:43:18;;;;;;;;;20.00;18.00;;;;;29.76;32.35;100592.50;4971737;28;47276;-78
2023/06/17 10:45:54;;;;;;;;;21.50;19.00;;;;;29.80;32.04;100599.88;4973765;28;46149;-78
2023/06/17 10:48:21;;;;;;;;;21.00;19.00;;;;;29.59;32.56;100546.47;4973200;28;45707;-81
2023/06/17 10:50:56;;;;;;;;;19.50;18.50;;;;;29.85;32.41;100588.41;4973267;28;45734;-80
2023/06/17 10:53:29;;;;;;;;;16.00;15.00;;;;;29.91;32.19;100582.88;4972850;28;45631;-79
2023/06/17 10:55:56;;;;;;;;;19.25;19.00;;;;;29.93;32.57;100569.97;4973385;28;45856;-81
2023/06/17 10:58:22;;;;;;;;;18.75;17.50;;;;;29.93;32.47;100574.56;4972880;28;45683;-80
2023/06/17 11:01:05;;;;;;;;;19.50;18.00;;;;;30.07;32.31;100588.66;4973282;28;45564;-80
2023/06/17 11:03:31;;;;;;;;;20.75;19.75;;;;;30.09;32.13;100573.00;4972668;28;45571;-80
2023/06/17 11:06:01;;;;;;;;;23.00;21.00;;;;;30.18;31.93;100576.97;4972599;28;46569;-81
2023/06/17 11:08:30;;;;;;;;;16.25;15.25;;;;;30.17;31.79;100572.66;4972831;28;45610;-80
2023/06/17 11:11:16;;;;;;;;;19.25;18.50;;;;;30.05;31.88;100545.63;4973106;28;45603;-80
2023/06/17 11:13:43;;;;;;;;;16.75;16.25;;;;;29.95;31.96;100524.63;4972659;28;46783;-80
2023/06/17 11:16:10;;;;;;;;;20.75;20.50;;;;;30.24;31.91;100573.31;4972183;28;46217;-82
2023/06/17 11:18:41;;;;;;;;;18.00;16.75;;;;;30.25;31.93;100569.56;4972665;28;45741;-81
2023/06/17 11:21:08;;;;;;;;;18.75;18.25;;;;;30.30;32.05;100561.53;4973094;28;45692;-83
2023/06/17 11:23:37;;;;;;;;;19.75;19.25;;;;;30.28;31.58;100547.47;4972681;28;45573;-82
2023/06/17 11:26:04;;;;;;;;;18.75;17.25;;;;;30.36;31.84;100557.88;4972864;28;45529;-82
2023/06/17 11:28:31;;;;;;;;;19.75;18.75;;;;;30.39;31.32;100546.59;4972638;28;45671;-82
2023/06/17 11:30:56;;;;;;;;;19.75;17.75;;;;;30.42;31.60;100541.53;4973078;28;45577;-81
2023/06/17 11:33:23;;;;;;;;;18.00;18.00;;;;;30.33;31.52;100521.34;4972559;28;45706;-81
2023/06/17 11:35:53;;;;;;;;;20.75;18.75;;;;;30.27;31.58;100489.03;4972861;28;45895;-82
2023/06/17 11:38:19;;;;;;;;;17.75;17.75;;;;;30.38;31.54;100494.41;4970470;28;45770;-79
2023/06/17 11:40:44;;;;;;;;;15.50;15.50;;;;;30.66;31.88;100531.44;4971186;28;45920;-77
2023/06/17 11:43:10;;;;;;;;;20.50;20.25;;;;;30.70;31.77;100526.38;4971374;28;45735;-78
2023/06/17 11:45:37;;;;;;;;;18.75;17.00;;;;;30.83;31.66;100523.34;4971918;28;45901;-80
2023/06/17 11:48:05;;;;;;;;;17.25;17.25;;;;;30.82;31.53;100516.34;4971552;28;45785;-79
2023/06/17 11:50:31;;;;;;;;;19.50;17.75;;;;;30.95;31.74;100524.13;4971624;28;45827;-79
2023/06/17 11:52:56;;;;;;;;;15.25;15.25;;;;;30.91;31.37;100501.31;4973675;28;45572;-79
2023/06/17 11:55:30;;;;;;;;;20.50;18.00;;;;;31.01;31.13;100506.91;4975578;28;45593;-80
2023/06/17 11:57:56;;;;;;;;;15.00;14.50;;;;;31.13;31.35;100523.09;4975566;28;45645;-78
2023/06/17 12:00:22;;;;;;;;;18.00;17.00;;;;;31.03;31.42;100504.00;4975863;28;45577;-78
2023/06/17 12:02:48;;;;;;;;;19.00;18.25;;;;;31.23;31.11;100526.78;4975448;28;46448;-79
2023/06/17 12:05:13;;;;;;;;;18.00;17.00;;;;;31.29;30.78;100516.03;4975443;28;45640;-80
2023/06/17 12:07:39;;;;;;;;;14.75;14.75;;;;;31.34;30.46;100522.34;4975605;28;45717;-79
2023/06/17 12:10:06;;;;;;;;;19.75;19.50;;;;;31.36;30.42;100519.41;4975808;28;45545;-78
2023/06/17 12:12:34;;;;;;;;;16.50;16.00;;;;;31.36;30.24;100514.81;4976908;28;46436;-81
2023/06/17 12:18:50;;;;;;;;;16.75;16.50;;;;;31.43;30.05;100501.06;4969073;28;45859;-80
2023/06/17 12:21:18;;;;;;;;;14.00;13.00;;;;;31.52;29.95;100513.16;4977278;28;45807;-80
2023/06/17 12:23:44;;;;;;;;;14.00;13.75;;;;;31.54;29.77;100506.41;4975362;28;45515;-81
2023/06/17 12:26:13;;;;;;;;;15.50;14.75;;;;;31.62;29.65;100513.31;4975353;28;45611;-79
2023/06/17 12:28:40;;;;;;;;;15.00;15.00;;;;;31.56;29.55;100504.28;4975320;28;45669;-80
2023/06/17 12:31:05;;;;;;;;;16.00;16.00;;;;;31.66;29.25;100515.28;4975266;28;45718;-80
2023/06/17 12:33:30;;;;;;;;;16.00;15.75;;;;;31.63;29.86;100512.25;4975547;28;45565;-81
2023/06/17 12:35:56;;;;;;;;;16.25;15.00;;;;;31.67;29.50;100508.78;4975391;28;45801;-73
2023/06/17 12:38:26;;;;;;;;;18.00;16.75;;;;;31.70;30.02;100503.94;4975030;28;45780;-74
2023/06/17 12:40:51;;;;;;;;;17.75;17.75;;;;;31.74;29.37;100505.91;4975383;28;45515;-73
2023/06/17 12:43:17;;;;;;;;;18.25;17.75;;;;;31.73;29.99;100508.88;4975050;28;46632;-72
2023/06/17 12:49:05;;;;;;;;;17.25;16.50;;;;;31.80;29.52;100498.63;4974787;28;45501;-71
2023/06/17 12:51:32;;;;;;;;;16.00;15.50;;;;;31.81;29.71;100494.88;4975103;28;45485;-73